createdAt,value
2018-02-20T00:01:28.011Z,22.50
2018-02-20T00:03:55.568Z,23.37
2018-02-20T00:06:23.103Z,21.23
2018-02-20T00:08:51.654Z,21.80
2018-02-20T00:11:19.961Z,22.20
2018-02-20T00:13:47.523Z,21.90
2018-02-20T00:16:15.066Z,22.23
2018-02-20T00:18:42.611Z,21.47
2018-02-20T00:21:10.185Z,21.47
2018-02-20T00:23:37.713Z,21.23
2018-02-20T00:26:06.046Z,21.53
2018-02-20T00:28:33.645Z,21.70
2018-02-20T00:31:01.194Z,21.13
2018-02-20T00:33:28.730Z,21.87
2018-02-20T00:35:56.284Z,22.03
2018-02-20T00:38:23.886Z,21.67
2018-02-20T00:40:51.409Z,23.00
2018-02-20T00:43:18.960Z,21.93
2018-02-20T00:45:46.483Z,22.03
2018-02-20T00:48:14.052Z,22.13
2018-02-20T00:50:41.596Z,21.80
2018-02-20T00:53:09.914Z,21.60
2018-02-20T00:55:38.346Z,20.77
2018-02-20T00:58:05.885Z,21.80
2018-02-20T01:00:34.208Z,21.00
2018-02-20T01:03:01.732Z,22.73
2018-02-20T01:05:31.051Z,20.53
2018-02-20T01:07:58.581Z,20.93
2018-02-20T01:10:26.919Z,20.20
2018-02-20T01:12:55.410Z,23.77
2018-02-20T01:15:23.924Z,21.77
2018-02-20T01:17:52.227Z,21.13
2018-02-20T01:20:20.711Z,21.97
2018-02-20T01:22:48.273Z,21.50
2018-02-20T01:25:15.815Z,23.00
2018-02-20T01:27:43.379Z,23.63
2018-02-20T01:30:10.908Z,24.60
2018-02-20T01:32:39.238Z,23.57
2018-02-20T01:35:06.807Z,22.20
2018-02-20T01:37:34.339Z,21.70
2018-02-20T01:40:01.922Z,24.13
2018-02-20T01:42:29.450Z,23.03
2018-02-20T01:44:57.234Z,23.73
2018-02-20T01:47:24.826Z,22.20
2018-02-20T01:49:52.364Z,24.07
2018-02-20T01:52:19.921Z,25.43
2018-02-20T01:54:47.467Z,22.93
2018-02-20T01:57:16.003Z,24.43
2018-02-20T01:59:44.499Z,23.50
2018-02-20T02:02:12.031Z,22.27
2018-02-20T02:04:41.547Z,23.43
2018-02-20T02:07:10.047Z,24.07
2018-02-20T02:09:37.610Z,24.23
2018-02-20T02:12:05.928Z,23.33
2018-02-20T02:14:33.662Z,23.63
2018-02-20T02:17:01.220Z,24.07
2018-02-20T02:19:28.781Z,23.50
2018-02-20T02:21:56.338Z,24.13
2018-02-20T02:24:23.862Z,24.20
2018-02-20T02:26:51.573Z,23.97
2018-02-20T02:29:19.123Z,25.10
2018-02-20T02:31:46.794Z,25.90
2018-02-20T02:34:14.909Z,25.37
2018-02-20T02:36:42.446Z,26.13
2018-02-20T02:39:10.014Z,26.30
2018-02-20T02:41:37.561Z,25.20
2018-02-20T02:44:05.121Z,26.07
2018-02-20T02:46:32.658Z,25.60
2018-02-20T02:49:00.229Z,25.17
2018-02-20T02:51:27.757Z,26.30
2018-02-20T02:53:55.288Z,25.83
2018-02-20T02:56:22.839Z,25.40
2018-02-20T02:58:52.190Z,26.63
2018-02-20T03:01:19.771Z,25.03
2018-02-20T03:03:47.292Z,25.90
2018-02-20T03:06:15.615Z,25.70
2018-02-20T03:08:43.146Z,25.43
2018-02-20T03:11:10.732Z,25.90
2018-02-20T03:13:38.298Z,26.40
2018-02-20T03:16:05.827Z,26.37
2018-02-20T03:18:33.384Z,26.20
2018-02-20T03:21:01.880Z,26.23
2018-02-20T03:23:29.439Z,26.73
2018-02-20T03:25:56.971Z,27.83
2018-02-20T03:28:24.493Z,27.53
2018-02-20T03:30:52.060Z,26.40
2018-02-20T03:33:20.361Z,27.53
2018-02-20T03:35:47.920Z,26.83
2018-02-20T03:38:16.440Z,26.47
2018-02-20T03:40:43.995Z,23.20
2018-02-20T03:43:11.536Z,21.87
2018-02-20T03:45:39.063Z,22.13
2018-02-20T03:48:07.391Z,22.97
2018-02-20T03:50:34.916Z,23.23
2018-02-20T03:53:02.487Z,23.00
2018-02-20T03:55:30.036Z,24.07
2018-02-20T03:57:57.592Z,22.47
2018-02-20T04:00:25.128Z,23.07
2018-02-20T04:02:52.661Z,27.50
2018-02-20T04:05:20.242Z,22.40
2018-02-20T04:07:47.778Z,24.17
2018-02-20T04:10:15.333Z,29.63
2018-02-20T04:12:42.875Z,21.87
2018-02-20T04:15:10.442Z,24.87
2018-02-20T04:17:37.967Z,28.07
2018-02-20T04:20:05.936Z,28.38
2018-02-20T04:22:33.497Z,24.60
2018-02-20T04:25:01.030Z,25.93
2018-02-20T04:27:29.383Z,37.03
2018-02-20T04:29:56.932Z,28.37
2018-02-20T04:32:24.531Z,26.53
2018-02-20T04:34:52.823Z,27.57
2018-02-20T04:37:20.351Z,34.60
2018-02-20T04:39:47.913Z,29.70
2018-02-20T04:42:16.207Z,29.40
2018-02-20T04:44:43.763Z,29.60
2018-02-20T04:47:12.082Z,29.47
2018-02-20T04:49:39.636Z,28.23
2018-02-20T04:52:07.171Z,30.43
2018-02-20T04:54:34.697Z,28.17
2018-02-20T04:57:02.247Z,34.07
2018-02-20T04:59:29.791Z,31.43
2018-02-20T05:01:57.347Z,32.57
2018-02-20T05:04:25.823Z,30.90
2018-02-20T05:06:53.492Z,30.17
2018-02-20T05:09:21.279Z,29.20
2018-02-20T05:11:48.850Z,29.20
2018-02-20T05:14:17.365Z,28.73
2018-02-20T05:16:45.332Z,35.10
2018-02-20T05:19:13.585Z,29.37
2018-02-20T05:21:41.892Z,28.90
2018-02-20T05:24:09.451Z,28.93
2018-02-20T05:26:36.985Z,32.40
2018-02-20T05:29:04.548Z,28.30
2018-02-20T05:31:32.102Z,27.07
2018-02-20T05:33:59.634Z,28.30
2018-02-20T05:36:27.191Z,27.57
2018-02-20T05:38:54.724Z,27.40
2018-02-20T05:41:22.290Z,30.57
2018-02-20T05:43:49.811Z,31.93
2018-02-20T05:46:17.375Z,28.90
2018-02-20T05:48:45.870Z,28.23
2018-02-20T05:51:13.403Z,28.53
2018-02-20T05:53:40.990Z,28.13
2018-02-20T05:56:08.522Z,27.67
2018-02-20T05:58:36.074Z,37.83
2018-02-20T06:01:03.604Z,27.77
2018-02-20T06:03:31.214Z,27.87
2018-02-20T06:05:59.667Z,26.23
2018-02-20T06:08:27.239Z,26.70
2018-02-20T06:10:54.783Z,25.47
2018-02-20T06:13:22.310Z,25.13
2018-02-20T06:15:49.871Z,26.80
2018-02-20T06:18:18.170Z,27.73
2018-02-20T06:20:45.742Z,27.53
2018-02-20T06:23:13.318Z,26.90
2018-02-20T06:25:40.893Z,28.27
2018-02-20T06:28:08.415Z,28.00
2018-02-20T06:30:35.968Z,28.20
2018-02-20T06:33:05.206Z,27.90
2018-02-20T06:35:33.700Z,27.97
2018-02-20T06:38:01.257Z,30.97
2018-02-20T06:40:28.789Z,28.63
2018-02-20T06:42:56.344Z,36.13
2018-02-20T06:45:23.879Z,31.70
2018-02-20T06:47:52.243Z,29.30
2018-02-20T06:50:19.784Z,30.93
2018-02-20T06:52:47.347Z,33.57
2018-02-20T06:55:14.887Z,32.50
2018-02-20T06:57:42.411Z,30.07
2018-02-20T07:00:10.147Z,29.27
2018-02-20T07:02:38.902Z,30.80
2018-02-20T07:05:06.476Z,30.10
2018-02-20T07:07:34.050Z,30.37
2018-02-20T07:10:02.383Z,37.10
2018-02-20T07:12:29.911Z,34.80
2018-02-20T07:14:58.427Z,29.47
2018-02-20T07:17:26.019Z,37.90
2018-02-20T07:19:53.563Z,31.13
2018-02-20T07:22:21.118Z,31.43
2018-02-20T07:24:49.256Z,34.40
2018-02-20T07:27:16.811Z,37.50
2018-02-20T07:29:44.340Z,33.53
2018-02-20T07:32:11.867Z,38.93
2018-02-20T07:34:39.430Z,40.77
2018-02-20T07:37:07.917Z,32.30
2018-02-20T07:39:35.477Z,34.10
2018-02-20T07:42:03.979Z,38.20
2018-02-20T07:44:33.504Z,36.77
2018-02-20T07:47:02.047Z,36.43
2018-02-20T07:49:29.620Z,32.97
2018-02-20T07:51:57.154Z,35.10
2018-02-20T07:54:24.690Z,36.00
2018-02-20T07:56:52.251Z,45.70
2018-02-20T07:59:20.726Z,36.43
2018-02-20T08:01:48.283Z,41.30
2018-02-20T08:04:15.810Z,34.90
2018-02-20T08:06:43.363Z,41.30
2018-02-20T08:09:11.906Z,37.40
2018-02-20T08:11:39.435Z,36.23
2018-02-20T08:14:06.994Z,37.70
2018-02-20T08:16:34.523Z,36.33
2018-02-20T08:19:02.096Z,33.23
2018-02-20T08:21:29.626Z,39.30
2018-02-20T08:23:57.940Z,36.90
2018-02-20T08:26:25.472Z,39.20
2018-02-20T08:28:53.035Z,38.10
2018-02-20T08:31:21.339Z,36.15
2018-02-20T08:33:48.871Z,37.50
2018-02-20T08:36:16.424Z,37.30
2018-02-20T08:38:43.959Z,32.97
2018-02-20T08:41:12.290Z,31.03
2018-02-20T08:43:39.812Z,31.73
2018-02-20T08:46:08.162Z,31.10
2018-02-20T08:48:35.706Z,32.60
2018-02-20T08:51:03.323Z,30.43
2018-02-20T08:53:30.892Z,34.33
2018-02-20T08:55:58.429Z,33.43
2018-02-20T08:58:27.712Z,34.90
2018-02-20T09:00:56.023Z,34.33
2018-02-20T09:03:23.579Z,39.10
2018-02-20T09:05:51.124Z,38.83
2018-02-20T09:08:19.604Z,37.57
2018-02-20T09:10:47.167Z,31.17
2018-02-20T09:13:15.534Z,35.07
2018-02-20T09:15:43.087Z,36.17
2018-02-20T09:18:11.381Z,36.07
2018-02-20T09:20:40.889Z,36.20
2018-02-20T09:23:09.269Z,35.67
2018-02-20T09:25:37.562Z,36.83
2018-02-20T09:28:05.111Z,35.27
2018-02-20T09:30:32.642Z,32.10
2018-02-20T09:33:00.192Z,18.50
2018-02-20T09:35:28.685Z,14.03
2018-02-20T09:37:56.246Z,14.80
2018-02-20T09:40:24.558Z,13.83
2018-02-20T09:42:52.094Z,14.17
2018-02-20T09:45:19.654Z,15.00
2018-02-20T09:47:47.964Z,14.40
2018-02-20T09:50:16.471Z,15.52
2018-02-20T09:52:44.001Z,15.17
2018-02-20T09:55:11.597Z,14.33
2018-02-20T09:57:39.127Z,14.53
2018-02-20T10:00:06.709Z,15.60
2018-02-20T10:02:34.236Z,18.50
2018-02-20T10:05:01.767Z,16.57
2018-02-20T10:07:29.328Z,15.37
2018-02-20T10:09:56.873Z,15.73
2018-02-20T10:12:25.195Z,18.80
2018-02-20T10:14:53.698Z,15.40
2018-02-20T10:17:21.259Z,16.27
2018-02-20T10:19:48.794Z,18.43
2018-02-20T10:22:16.318Z,16.83
2018-02-20T10:24:44.637Z,19.43
2018-02-20T10:27:12.156Z,17.40
2018-02-20T10:29:40.676Z,17.83
2018-02-20T10:32:08.212Z,17.50
2018-02-20T10:34:37.774Z,17.70
2018-02-20T10:37:05.314Z,17.57
2018-02-20T10:39:32.883Z,14.73
2018-02-20T10:42:00.450Z,18.00
2018-02-20T10:44:27.990Z,19.60
2018-02-20T10:46:55.556Z,16.87
2018-02-20T10:49:23.095Z,19.10
2018-02-20T10:51:51.595Z,16.40
2018-02-20T10:54:19.126Z,17.20
2018-02-20T10:56:46.681Z,20.50
2018-02-20T10:59:14.237Z,22.20
2018-02-20T11:01:41.779Z,20.80
2018-02-20T11:04:09.339Z,20.80
2018-02-20T11:06:36.990Z,20.67
2018-02-20T11:09:07.274Z,22.10
2018-02-20T11:11:34.824Z,23.10
2018-02-20T11:14:02.355Z,21.77
2018-02-20T11:16:29.924Z,19.50
2018-02-20T11:18:58.441Z,23.27
2018-02-20T11:21:26.009Z,20.53
2018-02-20T11:23:53.553Z,22.23
2018-02-20T11:26:22.078Z,22.70
2018-02-20T11:28:49.628Z,22.50
2018-02-20T11:31:19.142Z,22.10
2018-02-20T11:33:46.682Z,21.97
2018-02-20T11:36:14.986Z,22.90
2018-02-20T11:38:42.559Z,21.10
2018-02-20T11:41:10.102Z,21.70
2018-02-20T11:43:37.678Z,20.63
2018-02-20T11:46:05.218Z,20.80
2018-02-20T11:48:32.772Z,21.63
2018-02-20T11:51:00.319Z,23.53
2018-02-20T11:53:29.842Z,24.33
2018-02-20T11:55:57.376Z,21.10
2018-02-20T11:58:25.667Z,21.77
2018-02-20T12:00:53.226Z,17.83
2018-02-20T12:03:20.755Z,21.50
2018-02-20T12:05:48.310Z,20.97
2018-02-20T12:08:15.841Z,23.50
2018-02-20T12:10:43.410Z,23.80
2018-02-20T12:13:10.955Z,22.57
2018-02-20T12:15:38.511Z,21.40
2018-02-20T12:18:06.035Z,21.77
2018-02-20T12:20:33.561Z,21.40
2018-02-20T12:23:01.119Z,25.53
2018-02-20T12:25:28.652Z,22.07
2018-02-20T12:27:56.217Z,21.77
2018-02-20T12:30:24.677Z,21.67
2018-02-20T12:32:52.234Z,24.23
2018-02-20T12:35:19.762Z,21.00
2018-02-20T12:37:47.322Z,22.53
2018-02-20T12:40:15.620Z,23.03
2018-02-20T12:42:43.144Z,21.20
2018-02-20T12:45:10.715Z,23.00
2018-02-20T12:47:38.266Z,22.20
2018-02-20T12:50:05.886Z,22.55
2018-02-20T12:52:34.374Z,22.20
2018-02-20T12:55:02.880Z,22.77
2018-02-20T12:57:31.178Z,22.47
2018-02-20T12:59:58.731Z,21.37
2018-02-20T13:02:26.258Z,22.67
2018-02-20T13:04:53.791Z,20.60
2018-02-20T13:07:21.343Z,21.53
2018-02-20T13:09:48.866Z,22.17
2018-02-20T13:12:16.448Z,23.67
2018-02-20T13:14:43.998Z,22.50
2018-02-20T13:17:11.549Z,21.70
2018-02-20T13:19:39.837Z,21.90
2018-02-20T13:22:07.394Z,22.33
2018-02-20T13:24:34.915Z,22.30
2018-02-20T13:27:02.434Z,24.40
2018-02-20T13:29:29.986Z,23.77
2018-02-20T13:31:57.515Z,23.13
2018-02-20T13:34:25.835Z,22.93
2018-02-20T13:36:53.361Z,25.10
2018-02-20T13:39:20.919Z,27.00
2018-02-20T13:41:48.441Z,24.90
2018-02-20T13:44:17.932Z,24.57
2018-02-20T13:46:45.461Z,24.30
2018-02-20T13:49:12.988Z,22.50
2018-02-20T13:51:40.534Z,23.60
2018-02-20T13:54:08.060Z,23.67
2018-02-20T13:56:35.626Z,25.00
2018-02-20T13:59:03.154Z,26.13
2018-02-20T14:01:30.703Z,26.80
2018-02-20T14:03:58.235Z,25.33
2018-02-20T14:06:25.783Z,27.87
2018-02-20T14:08:53.311Z,29.30
2018-02-20T14:11:20.843Z,26.60
2018-02-20T14:13:48.402Z,30.90
2018-02-20T14:16:15.960Z,27.33
2018-02-20T14:18:43.518Z,31.30
2018-02-20T14:21:11.046Z,27.93
2018-02-20T14:23:38.609Z,36.33
2018-02-20T14:26:06.899Z,27.60
2018-02-20T14:28:34.576Z,29.80
2018-02-20T14:31:02.099Z,30.17
2018-02-20T14:33:29.627Z,33.20
2018-02-20T14:35:57.170Z,31.97
2018-02-20T14:38:24.708Z,27.53
2018-02-20T14:40:52.255Z,29.07
2018-02-20T14:43:19.795Z,32.53
2018-02-20T14:45:47.347Z,29.50
2018-02-20T14:48:14.879Z,31.10
2018-02-20T14:50:44.374Z,30.47
2018-02-20T14:53:11.906Z,32.07
2018-02-20T14:55:39.443Z,30.03
2018-02-20T14:58:06.990Z,30.63
2018-02-20T15:00:34.527Z,28.40
2018-02-20T15:03:02.845Z,30.13
2018-02-20T15:05:30.380Z,28.93
2018-02-20T15:07:57.930Z,28.13
2018-02-20T15:10:25.461Z,29.10
2018-02-20T15:12:53.029Z,30.07
2018-02-20T15:15:20.571Z,30.00
2018-02-20T15:17:48.099Z,30.70
2018-02-20T15:20:15.657Z,34.60
2018-02-20T15:22:43.194Z,31.07
2018-02-20T15:25:10.754Z,31.27
2018-02-20T15:27:39.052Z,30.67
2018-02-20T15:30:06.622Z,29.50
2018-02-20T15:32:34.149Z,31.67
2018-02-20T15:35:01.667Z,32.33
2018-02-20T15:37:29.298Z,27.90
2018-02-20T15:39:57.789Z,27.47
2018-02-20T15:42:25.339Z,28.60
2018-02-20T15:44:52.870Z,30.03
2018-02-20T15:47:20.419Z,30.97
2018-02-20T15:49:48.735Z,32.50
2018-02-20T15:52:16.262Z,24.30
2018-02-20T15:54:43.827Z,24.50
2018-02-20T15:57:11.350Z,26.20
2018-02-20T15:59:38.907Z,25.60
2018-02-20T16:02:06.459Z,22.80
2018-02-20T16:04:34.019Z,25.07
2018-02-20T16:07:01.546Z,24.40
2018-02-20T16:09:29.115Z,22.83
2018-02-20T16:11:56.649Z,25.33
2018-02-20T16:14:24.179Z,22.17
2018-02-20T16:16:51.742Z,23.80
2018-02-20T16:19:20.054Z,22.17
2018-02-20T16:21:47.619Z,20.77
2018-02-20T16:24:15.889Z,23.13
2018-02-20T16:26:43.454Z,30.77
2018-02-20T16:29:11.004Z,25.97
2018-02-20T16:31:38.535Z,23.63
2018-02-20T16:34:06.889Z,19.17
2018-02-20T16:36:34.422Z,19.67
2018-02-20T16:39:02.003Z,21.13
2018-02-20T16:41:29.538Z,21.03
2018-02-20T16:43:57.098Z,19.57
2018-02-20T16:46:24.646Z,19.07
2018-02-20T16:48:52.207Z,21.20
2018-02-20T16:51:19.733Z,22.63
2018-02-20T16:53:48.218Z,22.60
2018-02-20T16:56:15.771Z,22.00
2018-02-20T16:58:43.306Z,22.30
2018-02-20T17:01:10.866Z,21.83
2018-02-20T17:03:38.391Z,22.37
2018-02-20T17:06:05.941Z,20.67
2018-02-20T17:08:33.474Z,21.93
2018-02-20T17:11:01.054Z,20.07
2018-02-20T17:13:28.610Z,20.43
2018-02-20T17:15:57.300Z,21.30
2018-02-20T17:18:24.863Z,23.00
2018-02-20T17:20:52.400Z,20.90
2018-02-20T17:23:19.984Z,22.50
2018-02-20T17:25:47.514Z,24.43
2018-02-20T17:28:15.076Z,22.83
2018-02-20T17:30:42.598Z,19.13
2018-02-20T17:33:12.105Z,21.73
2018-02-20T17:35:40.610Z,21.25
2018-02-20T17:38:08.144Z,23.57
2018-02-20T17:40:36.672Z,20.10
2018-02-20T17:43:04.195Z,24.17
2018-02-20T17:45:31.748Z,22.20
2018-02-20T17:47:59.289Z,21.73
2018-02-20T17:50:26.883Z,22.00
2018-02-20T17:52:55.375Z,20.87
2018-02-20T17:55:22.946Z,21.83
2018-02-20T17:57:50.483Z,22.27
2018-02-20T18:00:18.025Z,23.00
2018-02-20T18:02:45.576Z,23.60
2018-02-20T18:05:13.875Z,22.37
2018-02-20T18:07:41.423Z,20.40
2018-02-20T18:10:08.954Z,21.47
2018-02-20T18:12:36.536Z,20.20
2018-02-20T18:15:04.827Z,20.20
2018-02-20T18:17:33.151Z,21.83
2018-02-20T18:20:00.696Z,23.77
2018-02-20T18:22:28.219Z,22.07
2018-02-20T18:24:56.597Z,22.90
2018-02-20T18:27:24.118Z,25.30
2018-02-20T18:29:51.669Z,23.17
2018-02-20T18:32:19.197Z,20.70
2018-02-20T18:34:46.752Z,40.50
2018-02-20T18:37:14.275Z,28.03
2018-02-20T18:39:43.767Z,27.47
2018-02-20T18:42:11.323Z,25.50
2018-02-20T18:44:38.871Z,23.53
2018-02-20T18:47:06.426Z,24.23
2018-02-20T18:49:33.963Z,21.00
2018-02-20T18:52:01.515Z,23.00
2018-02-20T18:54:29.039Z,22.57
2018-02-20T18:56:56.763Z,23.33
2018-02-20T18:59:24.321Z,22.60
2018-02-20T19:01:51.874Z,23.70
2018-02-20T19:04:19.408Z,25.70
2018-02-20T19:06:47.897Z,27.37
2018-02-20T19:09:15.456Z,21.00
2018-02-20T19:11:42.991Z,24.50
2018-02-20T19:14:10.558Z,23.70
2018-02-20T19:16:38.117Z,29.73
2018-02-20T19:19:05.687Z,32.20
2018-02-20T19:21:33.223Z,32.13
2018-02-20T19:24:00.786Z,30.93
2018-02-20T19:26:28.335Z,30.80
2018-02-20T19:28:56.657Z,31.03
2018-02-20T19:31:25.232Z,32.87
2018-02-20T19:33:52.769Z,26.33
2018-02-20T19:36:21.282Z,27.50
2018-02-20T19:38:48.827Z,30.20
2018-02-20T19:41:16.395Z,32.50
2018-02-20T19:43:43.944Z,30.57
2018-02-20T19:46:12.760Z,30.60
2018-02-20T19:48:40.508Z,29.60
2018-02-20T19:51:08.063Z,29.17
2018-02-20T19:53:35.630Z,27.37
2018-02-20T19:56:03.161Z,28.27
2018-02-20T19:58:30.713Z,30.43
2018-02-20T20:00:58.245Z,27.13
2018-02-20T20:03:26.582Z,25.83
2018-02-20T20:05:54.110Z,28.40
2018-02-20T20:08:21.668Z,28.17
2018-02-20T20:10:50.158Z,27.13
2018-02-20T20:13:17.727Z,27.00
2018-02-20T20:15:45.263Z,28.27
2018-02-20T20:18:12.797Z,23.50
2018-02-20T20:20:47.935Z,32.90
2018-02-20T20:23:07.929Z,25.27
2018-02-20T20:25:37.419Z,30.30
2018-02-20T20:28:05.730Z,25.50
2018-02-20T20:30:33.286Z,32.07
2018-02-20T20:33:00.814Z,43.10
2018-02-20T20:35:30.095Z,26.33
2018-02-20T20:37:58.583Z,26.40
2018-02-20T20:40:26.107Z,24.60
2018-02-20T20:42:53.670Z,27.17
2018-02-20T20:45:21.207Z,28.40
2018-02-20T20:47:50.718Z,30.03
2018-02-20T20:50:18.278Z,22.17
2018-02-20T20:52:45.850Z,26.10
2018-02-20T20:55:13.384Z,27.27
2018-02-20T20:57:41.915Z,25.60
2018-02-20T21:00:09.492Z,24.73
2018-02-20T21:02:37.023Z,27.20
2018-02-20T21:05:05.600Z,24.97
2018-02-20T21:07:33.130Z,26.87
2018-02-20T21:10:00.682Z,24.00
2018-02-20T21:12:29.193Z,25.37
2018-02-20T21:14:56.749Z,26.77
2018-02-20T21:17:24.270Z,25.53
2018-02-20T21:19:51.808Z,25.67
2018-02-20T21:22:20.134Z,25.30
2018-02-20T21:24:47.979Z,24.57
2018-02-20T21:27:15.558Z,26.20
2018-02-20T21:29:43.083Z,25.20
2018-02-20T21:32:10.642Z,25.30
2018-02-20T21:34:38.192Z,23.83
2018-02-20T21:37:05.755Z,24.40
2018-02-20T21:39:33.282Z,25.57
2018-02-20T21:42:00.887Z,23.60
2018-02-20T21:44:28.453Z,24.40
2018-02-20T21:46:56.015Z,23.83
2018-02-20T21:49:23.609Z,23.07
2018-02-20T21:51:51.144Z,23.30
2018-02-20T21:54:18.714Z,22.60
2018-02-20T21:56:46.245Z,24.90
2018-02-20T21:59:13.799Z,24.63
2018-02-20T22:01:41.370Z,23.57
2018-02-20T22:04:08.965Z,24.40
2018-02-20T22:06:36.498Z,24.23
2018-02-20T22:09:04.070Z,25.37
2018-02-20T22:11:32.605Z,23.67
2018-02-20T22:14:00.152Z,24.10
2018-02-20T22:16:27.710Z,25.40
2018-02-20T22:18:56.003Z,26.30
2018-02-20T22:21:23.559Z,24.57
2018-02-20T22:23:51.852Z,24.47
2018-02-20T22:26:19.414Z,25.53
2018-02-20T22:28:46.938Z,23.97
2018-02-20T22:31:15.231Z,22.80
2018-02-20T22:33:43.561Z,21.90
2018-02-20T22:36:11.108Z,23.57
2018-02-20T22:38:38.671Z,23.90
2018-02-20T22:41:06.194Z,23.27
2018-02-20T22:43:35.703Z,23.50
2018-02-20T22:46:03.238Z,23.17
2018-02-20T22:48:32.816Z,22.60
2018-02-20T22:51:00.360Z,22.93
2018-02-20T22:53:27.916Z,22.90
2018-02-20T22:55:56.407Z,23.60
2018-02-20T22:58:25.912Z,22.70
2018-02-20T23:00:53.463Z,24.00
2018-02-20T23:03:21.940Z,22.63
2018-02-20T23:05:51.457Z,23.87
2018-02-20T23:08:19.001Z,25.77
2018-02-20T23:10:46.574Z,25.60
2018-02-20T23:13:14.122Z,26.67
2018-02-20T23:15:42.783Z,26.63
2018-02-20T23:18:10.309Z,26.73
2018-02-20T23:20:37.878Z,27.03
2018-02-20T23:23:06.406Z,23.83
2018-02-20T23:25:33.956Z,27.00
2018-02-20T23:28:01.560Z,25.33
2018-02-20T23:30:29.112Z,24.70
2018-02-20T23:32:56.684Z,26.07
2018-02-20T23:35:24.989Z,30.90
2018-02-20T23:37:52.548Z,27.30
2018-02-20T23:40:20.079Z,25.43
2018-02-20T23:42:48.422Z,26.43
2018-02-20T23:45:15.970Z,26.30
2018-02-20T23:47:44.532Z,25.17
2018-02-20T23:50:12.090Z,25.10
2018-02-20T23:52:39.643Z,24.27
2018-02-20T23:55:07.172Z,25.40
2018-02-20T23:57:34.699Z,25.93
